sensor_id;sensor_type;location;lat;lon;timestamp;P1;durP1;ratioP1;P2;durP2;ratioP2
2041;SDS011;1026;51.460;7.252;2023-06-24T00:00:45;4.50;;;4.10;;
2041;SDS011;1026;51.460;7.252;2023-06-24T00:03:11;5.00;;;4.60;;
2041;SDS011;1026;51.460;7.252;2023-06-24T00:05:41;5.47;;;5.03;;
2041;SDS011;1026;51.460;7.252;2023-06-24T00:08:08;5.10;;;4.70;;
2041;SDS011;1026;51.460;7.252;2023-06-24T00:10:34;5.03;;;4.60;;
2041;SDS011;1026;51.460;7.252;2023-06-24T00:12:59;7.10;;;4.97;;
2041;SDS011;1026;51.460;7.252;2023-06-24T00:15:35;5.13;;;4.73;;
2041;SDS011;1026;51.460;7.252;2023-06-24T00:18:07;5.60;;;5.07;;
2041;SDS011;1026;51.460;7.252;2023-06-24T00:20:33;5.43;;;4.97;;
2041;SDS011;1026;51.460;7.252;2023-06-24T00:22:59;4.97;;;4.53;;
2041;SDS011;1026;51.460;7.252;2023-06-24T00:25:24;5.20;;;4.80;;
2041;SDS011;1026;51.460;7.252;2023-06-24T00:27:50;5.70;;;5.30;;
2041;SDS011;1026;51.460;7.252;2023-06-24T00:30:16;5.70;;;5.20;;
2041;SDS011;1026;51.460;7.252;2023-06-24T00:32:41;5.70;;;5.20;;
2041;SDS011;1026;51.460;7.252;2023-06-24T00:35:07;5.60;;;5.00;;
2041;SDS011;1026;51.460;7.252;2023-06-24T00:37:33;5.20;;;4.80;;
2041;SDS011;1026;51.460;7.252;2023-06-24T00:39:59;4.60;;;4.20;;
2041;SDS011;1026;51.460;7.252;2023-06-24T00:42:24;5.27;;;4.87;;
2041;SDS011;1026;51.460;7.252;2023-06-24T00:44:50;5.90;;;5.40;;
2041;SDS011;1026;51.460;7.252;2023-06-24T00:47:16;5.93;;;5.40;;
2041;SDS011;1026;51.460;7.252;2023-06-24T00:49:41;5.73;;;5.27;;
2041;SDS011;1026;51.460;7.252;2023-06-24T00:52:10;5.30;;;4.90;;
2041;SDS011;1026;51.460;7.252;2023-06-24T00:54:41;5.80;;;5.30;;
2041;SDS011;1026;51.460;7.252;2023-06-24T00:57:07;5.77;;;5.37;;
2041;SDS011;1026;51.460;7.252;2023-06-24T00:59:33;5.20;;;4.70;;
2041;SDS011;1026;51.460;7.252;2023-06-24T01:02:00;5.73;;;5.23;;
2041;SDS011;1026;51.460;7.252;2023-06-24T01:04:26;5.00;;;4.60;;
2041;SDS011;1026;51.460;7.252;2023-06-24T01:06:52;4.67;;;4.30;;
2041;SDS011;1026;51.460;7.252;2023-06-24T01:09:19;4.87;;;4.47;;
2041;SDS011;1026;51.460;7.252;2023-06-24T01:11:45;5.43;;;5.03;;
2041;SDS011;1026;51.460;7.252;2023-06-24T01:14:12;5.47;;;5.07;;
2041;SDS011;1026;51.460;7.252;2023-06-24T01:16:57;5.80;;;5.23;;
2041;SDS011;1026;51.460;7.252;2023-06-24T01:19:33;5.30;;;4.80;;
2041;SDS011;1026;51.460;7.252;2023-06-24T01:22:11;4.60;;;4.20;;
2041;SDS011;1026;51.460;7.252;2023-06-24T01:25:02;5.30;;;4.80;;
2041;SDS011;1026;51.460;7.252;2023-06-24T01:33:07;6.00;;;5.13;;
2041;SDS011;1026;51.460;7.252;2023-06-24T01:35:38;6.80;;;5.20;;
2041;SDS011;1026;51.460;7.252;2023-06-24T01:38:08;5.90;;;4.53;;
2041;SDS011;1026;51.460;7.252;2023-06-24T01:40:44;4.33;;;3.93;;
2041;SDS011;1026;51.460;7.252;2023-06-24T01:43:31;4.60;;;4.20;;
2041;SDS011;1026;51.460;7.252;2023-06-24T01:46:02;5.00;;;4.60;;
2041;SDS011;1026;51.460;7.252;2023-06-24T01:48:32;5.60;;;5.10;;
2041;SDS011;1026;51.460;7.252;2023-06-24T01:51:03;5.30;;;4.87;;
2041;SDS011;1026;51.460;7.252;2023-06-24T01:53:35;4.80;;;4.40;;
2041;SDS011;1026;51.460;7.252;2023-06-24T01:56:05;6.03;;;4.70;;
2041;SDS011;1026;51.460;7.252;2023-06-24T01:58:32;5.23;;;4.70;;
2041;SDS011;1026;51.460;7.252;2023-06-24T02:01:01;5.20;;;4.73;;
2041;SDS011;1026;51.460;7.252;2023-06-24T02:03:27;4.20;;;3.90;;
2041;SDS011;1026;51.460;7.252;2023-06-24T02:05:54;4.27;;;3.97;;
2041;SDS011;1026;51.460;7.252;2023-06-24T02:08:21;5.50;;;5.00;;
2041;SDS011;1026;51.460;7.252;2023-06-24T02:10:49;5.20;;;4.80;;
2041;SDS011;1026;51.460;7.252;2023-06-24T02:13:17;4.23;;;3.93;;
2041;SDS011;1026;51.460;7.252;2023-06-24T02:15:45;4.70;;;4.30;;
2041;SDS011;1026;51.460;7.252;2023-06-24T02:18:12;4.37;;;4.07;;
2041;SDS011;1026;51.460;7.252;2023-06-24T02:20:40;5.43;;;4.93;;
2041;SDS011;1026;51.460;7.252;2023-06-24T02:23:17;5.20;;;4.80;;
2041;SDS011;1026;51.460;7.252;2023-06-24T02:25:46;5.30;;;4.80;;
2041;SDS011;1026;51.460;7.252;2023-06-24T02:28:13;5.50;;;5.10;;
2041;SDS011;1026;51.460;7.252;2023-06-24T02:30:40;4.60;;;4.20;;
2041;SDS011;1026;51.460;7.252;2023-06-24T02:33:07;4.90;;;4.50;;
2041;SDS011;1026;51.460;7.252;2023-06-24T02:35:34;5.30;;;4.90;;
2041;SDS011;1026;51.460;7.252;2023-06-24T02:37:59;5.13;;;4.73;;
2041;SDS011;1026;51.460;7.252;2023-06-24T02:40:25;4.70;;;4.30;;
2041;SDS011;1026;51.460;7.252;2023-06-24T02:42:52;5.37;;;4.87;;
2041;SDS011;1026;51.460;7.252;2023-06-24T02:45:17;5.10;;;4.60;;
2041;SDS011;1026;51.460;7.252;2023-06-24T02:47:44;4.30;;;3.90;;
2041;SDS011;1026;51.460;7.252;2023-06-24T02:50:12;3.77;;;3.47;;
2041;SDS011;1026;51.460;7.252;2023-06-24T02:52:38;5.53;;;5.03;;
2041;SDS011;1026;51.460;7.252;2023-06-24T02:55:04;4.53;;;4.13;;
2041;SDS011;1026;51.460;7.252;2023-06-24T02:57:31;4.30;;;4.00;;
2041;SDS011;1026;51.460;7.252;2023-06-24T03:00:01;4.60;;;4.23;;
2041;SDS011;1026;51.460;7.252;2023-06-24T03:02:30;5.20;;;4.70;;
2041;SDS011;1026;51.460;7.252;2023-06-24T03:04:57;5.30;;;4.90;;
2041;SDS011;1026;51.460;7.252;2023-06-24T03:07:24;4.00;;;3.70;;
2041;SDS011;1026;51.460;7.252;2023-06-24T03:09:50;5.53;;;5.03;;
2041;SDS011;1026;51.460;7.252;2023-06-24T03:12:21;5.70;;;4.87;;
2041;SDS011;1026;51.460;7.252;2023-06-24T03:14:47;5.63;;;5.13;;
2041;SDS011;1026;51.460;7.252;2023-06-24T03:17:13;4.33;;;3.97;;
2041;SDS011;1026;51.460;7.252;2023-06-24T03:19:48;4.53;;;4.17;;
2041;SDS011;1026;51.460;7.252;2023-06-24T03:22:13;4.27;;;3.87;;
2041;SDS011;1026;51.460;7.252;2023-06-24T03:24:39;4.50;;;4.10;;
2041;SDS011;1026;51.460;7.252;2023-06-24T03:27:05;4.73;;;4.33;;
2041;SDS011;1026;51.460;7.252;2023-06-24T03:29:37;4.30;;;4.00;;
2041;SDS011;1026;51.460;7.252;2023-06-24T03:32:03;5.80;;;5.30;;
2041;SDS011;1026;51.460;7.252;2023-06-24T03:34:29;4.70;;;4.30;;
2041;SDS011;1026;51.460;7.252;2023-06-24T03:36:54;4.73;;;4.33;;
2041;SDS011;1026;51.460;7.252;2023-06-24T03:39:20;4.97;;;4.57;;
2041;SDS011;1026;51.460;7.252;2023-06-24T03:41:46;4.77;;;4.27;;
2041;SDS011;1026;51.460;7.252;2023-06-24T03:44:12;4.67;;;4.27;;
2041;SDS011;1026;51.460;7.252;2023-06-24T03:46:38;4.93;;;4.43;;
2041;SDS011;1026;51.460;7.252;2023-06-24T03:49:03;4.90;;;4.50;;
2041;SDS011;1026;51.460;7.252;2023-06-24T03:51:29;3.73;;;3.43;;
2041;SDS011;1026;51.460;7.252;2023-06-24T03:53:58;5.37;;;4.97;;
2041;SDS011;1026;51.460;7.252;2023-06-24T03:56:24;5.20;;;4.70;;
2041;SDS011;1026;51.460;7.252;2023-06-24T03:58:53;4.17;;;3.87;;
2041;SDS011;1026;51.460;7.252;2023-06-24T04:01:18;4.60;;;4.20;;
2041;SDS011;1026;51.460;7.252;2023-06-24T04:03:50;5.20;;;4.70;;
2041;SDS011;1026;51.460;7.252;2023-06-24T04:06:19;4.93;;;4.53;;
2041;SDS011;1026;51.460;7.252;2023-06-24T04:08:44;4.47;;;4.17;;
2041;SDS011;1026;51.460;7.252;2023-06-24T04:11:13;5.10;;;4.70;;
2041;SDS011;1026;51.460;7.252;2023-06-24T04:13:39;5.17;;;4.70;;
2041;SDS011;1026;51.460;7.252;2023-06-24T04:16:11;4.37;;;4.07;;
2041;SDS011;1026;51.460;7.252;2023-06-24T04:18:36;4.60;;;4.20;;
2041;SDS011;1026;51.460;7.252;2023-06-24T04:21:05;4.30;;;3.90;;
2041;SDS011;1026;51.460;7.252;2023-06-24T04:23:32;5.03;;;4.63;;
2041;SDS011;1026;51.460;7.252;2023-06-24T04:25:58;5.27;;;4.77;;
2041;SDS011;1026;51.460;7.252;2023-06-24T04:28:29;5.67;;;4.80;;
2041;SDS011;1026;51.460;7.252;2023-06-24T04:30:55;4.40;;;4.10;;
2041;SDS011;1026;51.460;7.252;2023-06-24T04:33:21;5.13;;;4.60;;
2041;SDS011;1026;51.460;7.252;2023-06-24T04:35:48;4.47;;;4.07;;
2041;SDS011;1026;51.460;7.252;2023-06-24T04:38:14;4.70;;;4.30;;
2041;SDS011;1026;51.460;7.252;2023-06-24T04:41:04;4.80;;;4.40;;
2041;SDS011;1026;51.460;7.252;2023-06-24T04:46:56;4.43;;;4.03;;
2041;SDS011;1026;51.460;7.252;2023-06-24T04:49:22;4.00;;;3.70;;
2041;SDS011;1026;51.460;7.252;2023-06-24T04:51:59;4.73;;;4.33;;
2041;SDS011;1026;51.460;7.252;2023-06-24T04:54:26;4.40;;;4.10;;
2041;SDS011;1026;51.460;7.252;2023-06-24T04:57:00;6.00;;;5.40;;
2041;SDS011;1026;51.460;7.252;2023-06-24T04:59:26;4.67;;;4.27;;
2041;SDS011;1026;51.460;7.252;2023-06-24T05:01:51;4.30;;;4.00;;
2041;SDS011;1026;51.460;7.252;2023-06-24T05:04:17;4.30;;;4.00;;
2041;SDS011;1026;51.460;7.252;2023-06-24T05:06:43;4.50;;;4.10;;
2041;SDS011;1026;51.460;7.252;2023-06-24T05:09:08;5.23;;;4.83;;
2041;SDS011;1026;51.460;7.252;2023-06-24T05:11:38;5.03;;;4.63;;
2041;SDS011;1026;51.460;7.252;2023-06-24T05:14:04;4.43;;;4.13;;
2041;SDS011;1026;51.460;7.252;2023-06-24T05:16:30;4.10;;;3.80;;
2041;SDS011;1026;51.460;7.252;2023-06-24T05:18:55;4.27;;;3.97;;
2041;SDS011;1026;51.460;7.252;2023-06-24T05:21:21;4.43;;;4.03;;
2041;SDS011;1026;51.460;7.252;2023-06-24T05:23:47;5.93;;;5.37;;
2041;SDS011;1026;51.460;7.252;2023-06-24T05:26:12;5.17;;;4.67;;
2041;SDS011;1026;51.460;7.252;2023-06-24T05:28:38;4.37;;;3.97;;
2041;SDS011;1026;51.460;7.252;2023-06-24T05:31:04;5.03;;;4.63;;
2041;SDS011;1026;51.460;7.252;2023-06-24T05:33:30;4.00;;;3.80;;
2041;SDS011;1026;51.460;7.252;2023-06-24T05:35:55;4.90;;;4.50;;
2041;SDS011;1026;51.460;7.252;2023-06-24T05:38:21;5.50;;;5.00;;
2041;SDS011;1026;51.460;7.252;2023-06-24T05:40:47;5.60;;;5.10;;
2041;SDS011;1026;51.460;7.252;2023-06-24T05:43:12;4.73;;;4.30;;
2041;SDS011;1026;51.460;7.252;2023-06-24T05:45:38;5.10;;;4.70;;
2041;SDS011;1026;51.460;7.252;2023-06-24T05:48:04;4.90;;;4.50;;
2041;SDS011;1026;51.460;7.252;2023-06-24T05:50:30;4.20;;;3.90;;
2041;SDS011;1026;51.460;7.252;2023-06-24T05:52:55;4.27;;;3.97;;
2041;SDS011;1026;51.460;7.252;2023-06-24T05:55:41;4.10;;;3.80;;
2041;SDS011;1026;51.460;7.252;2023-06-24T05:58:07;4.20;;;3.90;;
2041;SDS011;1026;51.460;7.252;2023-06-24T06:00:33;4.13;;;3.83;;
2041;SDS011;1026;51.460;7.252;2023-06-24T06:02:59;4.30;;;3.90;;
2041;SDS011;1026;51.460;7.252;2023-06-24T06:05:24;4.33;;;3.97;;
2041;SDS011;1026;51.460;7.252;2023-06-24T06:08:25;4.90;;;4.33;;
2041;SDS011;1026;51.460;7.252;2023-06-24T06:10:51;4.97;;;4.53;;
2041;SDS011;1026;51.460;7.252;2023-06-24T06:13:16;4.20;;;3.87;;
2041;SDS011;1026;51.460;7.252;2023-06-24T06:15:42;5.27;;;4.87;;
2041;SDS011;1026;51.460;7.252;2023-06-24T06:18:08;4.30;;;4.00;;
2041;SDS011;1026;51.460;7.252;2023-06-24T06:20:33;3.73;;;3.43;;
2041;SDS011;1026;51.460;7.252;2023-06-24T06:22:59;4.87;;;4.27;;
2041;SDS011;1026;51.460;7.252;2023-06-24T06:25:25;4.07;;;3.77;;
2041;SDS011;1026;51.460;7.252;2023-06-24T06:27:51;5.37;;;4.47;;
2041;SDS011;1026;51.460;7.252;2023-06-24T06:30:16;4.93;;;4.20;;
2041;SDS011;1026;51.460;7.252;2023-06-24T06:32:42;4.27;;;3.90;;
2041;SDS011;1026;51.460;7.252;2023-06-24T06:35:08;11.10;;;5.23;;
2041;SDS011;1026;51.460;7.252;2023-06-24T06:37:34;4.07;;;3.77;;
2041;SDS011;1026;51.460;7.252;2023-06-24T06:39:59;4.13;;;3.60;;
2041;SDS011;1026;51.460;7.252;2023-06-24T06:42:25;7.10;;;4.70;;
2041;SDS011;1026;51.460;7.252;2023-06-24T06:44:51;6.03;;;5.43;;
2041;SDS011;1026;51.460;7.252;2023-06-24T06:47:16;5.77;;;5.27;;
2041;SDS011;1026;51.460;7.252;2023-06-24T06:49:42;4.20;;;3.80;;
2041;SDS011;1026;51.460;7.252;2023-06-24T06:52:08;4.63;;;4.33;;
2041;SDS011;1026;51.460;7.252;2023-06-24T06:54:34;4.67;;;4.27;;
2041;SDS011;1026;51.460;7.252;2023-06-24T06:57:00;5.23;;;4.73;;
2041;SDS011;1026;51.460;7.252;2023-06-24T06:59:27;6.40;;;5.90;;
2041;SDS011;1026;51.460;7.252;2023-06-24T07:01:53;4.23;;;3.93;;
2041;SDS011;1026;51.460;7.252;2023-06-24T07:04:18;6.83;;;6.07;;
2041;SDS011;1026;51.460;7.252;2023-06-24T07:06:44;5.10;;;4.70;;
2041;SDS011;1026;51.460;7.252;2023-06-24T07:09:10;7.30;;;6.67;;
2041;SDS011;1026;51.460;7.252;2023-06-24T07:11:35;8.27;;;7.40;;
2041;SDS011;1026;51.460;7.252;2023-06-24T07:14:01;10.33;;;7.47;;
2041;SDS011;1026;51.460;7.252;2023-06-24T07:16:27;3.90;;;3.60;;
2041;SDS011;1026;51.460;7.252;2023-06-24T07:18:52;11.50;;;7.90;;
2041;SDS011;1026;51.460;7.252;2023-06-24T07:21:18;6.80;;;6.13;;
2041;SDS011;1026;51.460;7.252;2023-06-24T07:23:44;4.87;;;4.47;;
2041;SDS011;1026;51.460;7.252;2023-06-24T07:26:09;6.40;;;5.80;;
2041;SDS011;1026;51.460;7.252;2023-06-24T07:28:35;7.43;;;6.47;;
2041;SDS011;1026;51.460;7.252;2023-06-24T07:31:01;7.67;;;6.97;;
2041;SDS011;1026;51.460;7.252;2023-06-24T07:33:26;5.13;;;4.73;;
2041;SDS011;1026;51.460;7.252;2023-06-24T07:35:55;7.10;;;6.50;;
2041;SDS011;1026;51.460;7.252;2023-06-24T07:38:28;5.80;;;4.70;;
2041;SDS011;1026;51.460;7.252;2023-06-24T07:40:54;7.80;;;6.83;;
2041;SDS011;1026;51.460;7.252;2023-06-24T07:43:20;10.33;;;8.13;;
2041;SDS011;1026;51.460;7.252;2023-06-24T07:45:46;4.63;;;4.23;;
2041;SDS011;1026;51.460;7.252;2023-06-24T07:48:12;7.90;;;6.83;;
2041;SDS011;1026;51.460;7.252;2023-06-24T07:50:38;5.27;;;4.87;;
2041;SDS011;1026;51.460;7.252;2023-06-24T07:53:04;6.23;;;5.63;;
2041;SDS011;1026;51.460;7.252;2023-06-24T07:55:29;5.00;;;4.60;;
2041;SDS011;1026;51.460;7.252;2023-06-24T07:57:55;7.83;;;7.20;;
2041;SDS011;1026;51.460;7.252;2023-06-24T08:00:22;6.70;;;6.10;;
2041;SDS011;1026;51.460;7.252;2023-06-24T08:02:47;5.20;;;4.80;;
2041;SDS011;1026;51.460;7.252;2023-06-24T08:05:13;9.50;;;8.50;;
2041;SDS011;1026;51.460;7.252;2023-06-24T08:07:38;10.70;;;8.87;;
2041;SDS011;1026;51.460;7.252;2023-06-24T08:10:04;11.43;;;10.40;;
2041;SDS011;1026;51.460;7.252;2023-06-24T08:12:30;10.30;;;8.97;;
2041;SDS011;1026;51.460;7.252;2023-06-24T08:14:56;12.83;;;9.33;;
2041;SDS011;1026;51.460;7.252;2023-06-24T08:17:22;10.43;;;9.50;;
2041;SDS011;1026;51.460;7.252;2023-06-24T08:19:48;11.73;;;10.63;;
2041;SDS011;1026;51.460;7.252;2023-06-24T08:22:14;11.77;;;10.67;;
2041;SDS011;1026;51.460;7.252;2023-06-24T08:24:39;10.17;;;9.30;;
2041;SDS011;1026;51.460;7.252;2023-06-24T08:27:05;12.27;;;10.97;;
2041;SDS011;1026;51.460;7.252;2023-06-24T08:29:46;45.57;;;16.33;;
2041;SDS011;1026;51.460;7.252;2023-06-24T08:32:12;14.73;;;11.80;;
2041;SDS011;1026;51.460;7.252;2023-06-24T08:34:38;15.83;;;13.60;;
2041;SDS011;1026;51.460;7.252;2023-06-24T08:37:03;18.70;;;10.70;;
2041;SDS011;1026;51.460;7.252;2023-06-24T08:39:29;14.93;;;12.77;;
2041;SDS011;1026;51.460;7.252;2023-06-24T08:41:54;13.57;;;11.73;;
2041;SDS011;1026;51.460;7.252;2023-06-24T08:44:20;13.60;;;12.00;;
2041;SDS011;1026;51.460;7.252;2023-06-24T08:46:46;14.63;;;12.57;;
2041;SDS011;1026;51.460;7.252;2023-06-24T08:51:40;13.03;;;11.73;;
2041;SDS011;1026;51.460;7.252;2023-06-24T08:54:09;15.20;;;12.27;;
2041;SDS011;1026;51.460;7.252;2023-06-24T08:56:36;11.70;;;10.47;;
2041;SDS011;1026;51.460;7.252;2023-06-24T08:59:05;12.20;;;11.00;;
2041;SDS011;1026;51.460;7.252;2023-06-24T09:01:31;13.70;;;11.27;;
2041;SDS011;1026;51.460;7.252;2023-06-24T09:03:57;10.30;;;9.23;;
2041;SDS011;1026;51.460;7.252;2023-06-24T09:06:22;10.10;;;9.10;;
2041;SDS011;1026;51.460;7.252;2023-06-24T09:08:52;10.10;;;9.10;;
2041;SDS011;1026;51.460;7.252;2023-06-24T09:11:22;9.53;;;8.53;;
2041;SDS011;1026;51.460;7.252;2023-06-24T09:13:59;9.10;;;8.00;;
2041;SDS011;1026;51.460;7.252;2023-06-24T09:16:26;7.83;;;7.13;;
2041;SDS011;1026;51.460;7.252;2023-06-24T09:18:52;10.17;;;8.30;;
2041;SDS011;1026;51.460;7.252;2023-06-24T09:21:26;8.17;;;6.87;;
2041;SDS011;1026;51.460;7.252;2023-06-24T09:23:55;9.00;;;8.10;;
2041;SDS011;1026;51.460;7.252;2023-06-24T09:26:34;8.67;;;7.87;;
2041;SDS011;1026;51.460;7.252;2023-06-24T09:29:03;8.70;;;7.90;;
2041;SDS011;1026;51.460;7.252;2023-06-24T09:31:29;8.90;;;8.10;;
2041;SDS011;1026;51.460;7.252;2023-06-24T09:33:58;9.00;;;7.10;;
2041;SDS011;1026;51.460;7.252;2023-06-24T09:36:26;9.73;;;6.80;;
2041;SDS011;1026;51.460;7.252;2023-06-24T09:38:56;7.63;;;7.03;;
2041;SDS011;1026;51.460;7.252;2023-06-24T09:41:53;8.40;;;7.50;;
2041;SDS011;1026;51.460;7.252;2023-06-24T09:44:19;9.97;;;8.90;;
2041;SDS011;1026;51.460;7.252;2023-06-24T09:46:45;8.97;;;8.07;;
2041;SDS011;1026;51.460;7.252;2023-06-24T09:49:11;9.50;;;8.10;;
2041;SDS011;1026;51.460;7.252;2023-06-24T09:51:38;8.07;;;7.27;;
2041;SDS011;1026;51.460;7.252;2023-06-24T09:54:05;7.33;;;6.73;;
2041;SDS011;1026;51.460;7.252;2023-06-24T09:56:33;6.67;;;5.90;;
2041;SDS011;1026;51.460;7.252;2023-06-24T09:59:03;6.47;;;5.87;;
2041;SDS011;1026;51.460;7.252;2023-06-24T10:01:30;7.83;;;6.27;;
2041;SDS011;1026;51.460;7.252;2023-06-24T10:04:01;8.20;;;6.90;;
2041;SDS011;1026;51.460;7.252;2023-06-24T10:06:29;6.20;;;5.60;;
2041;SDS011;1026;51.460;7.252;2023-06-24T10:08:56;7.60;;;6.00;;
2041;SDS011;1026;51.460;7.252;2023-06-24T10:11:21;7.30;;;6.33;;
2041;SDS011;1026;51.460;7.252;2023-06-24T10:13:47;6.50;;;6.00;;
2041;SDS011;1026;51.460;7.252;2023-06-24T10:16:13;6.43;;;5.83;;
2041;SDS011;1026;51.460;7.252;2023-06-24T10:18:40;6.53;;;5.87;;
2041;SDS011;1026;51.460;7.252;2023-06-24T10:21:07;6.33;;;5.53;;
2041;SDS011;1026;51.460;7.252;2023-06-24T10:23:39;7.10;;;6.40;;
2041;SDS011;1026;51.460;7.252;2023-06-24T10:26:26;6.00;;;5.40;;
2041;SDS011;1026;51.460;7.252;2023-06-24T10:31:50;5.90;;;5.40;;
2041;SDS011;1026;51.460;7.252;2023-06-24T10:39:37;7.00;;;6.40;;
2041;SDS011;1026;51.460;7.252;2023-06-24T10:45:13;10.03;;;6.50;;
2041;SDS011;1026;51.460;7.252;2023-06-24T10:47:45;7.63;;;5.83;;
2041;SDS011;1026;51.460;7.252;2023-06-24T10:50:13;8.10;;;5.50;;
2041;SDS011;1026;51.460;7.252;2023-06-24T10:52:40;5.83;;;5.33;;
2041;SDS011;1026;51.460;7.252;2023-06-24T10:55:07;5.70;;;5.20;;
2041;SDS011;1026;51.460;7.252;2023-06-24T10:57:33;6.53;;;5.93;;
2041;SDS011;1026;51.460;7.252;2023-06-24T11:00:00;5.17;;;4.77;;
2041;SDS011;1026;51.460;7.252;2023-06-24T11:02:26;6.60;;;5.70;;
2041;SDS011;1026;51.460;7.252;2023-06-24T11:04:56;5.30;;;4.80;;
2041;SDS011;1026;51.460;7.252;2023-06-24T11:07:23;6.73;;;6.20;;
2041;SDS011;1026;51.460;7.252;2023-06-24T11:09:51;5.23;;;4.73;;
2041;SDS011;1026;51.460;7.252;2023-06-24T11:12:19;8.50;;;5.30;;
2041;SDS011;1026;51.460;7.252;2023-06-24T11:14:48;5.50;;;5.00;;
2041;SDS011;1026;51.460;7.252;2023-06-24T11:17:14;4.93;;;4.53;;
2041;SDS011;1026;51.460;7.252;2023-06-24T11:19:40;10.83;;;5.20;;
2041;SDS011;1026;51.460;7.252;2023-06-24T11:22:06;5.03;;;4.17;;
2041;SDS011;1026;51.460;7.252;2023-06-24T11:24:33;5.13;;;4.73;;
2041;SDS011;1026;51.460;7.252;2023-06-24T11:27:00;5.77;;;5.17;;
2041;SDS011;1026;51.460;7.252;2023-06-24T11:29:29;5.73;;;5.23;;
2041;SDS011;1026;51.460;7.252;2023-06-24T11:31:56;5.33;;;4.93;;
2041;SDS011;1026;51.460;7.252;2023-06-24T11:34:22;10.00;;;4.83;;
2041;SDS011;1026;51.460;7.252;2023-06-24T11:36:48;5.43;;;5.03;;
2041;SDS011;1026;51.460;7.252;2023-06-24T11:39:21;5.03;;;4.63;;
2041;SDS011;1026;51.460;7.252;2023-06-24T11:41:48;4.00;;;3.70;;
2041;SDS011;1026;51.460;7.252;2023-06-24T11:44:14;4.47;;;4.10;;
2041;SDS011;1026;51.460;7.252;2023-06-24T11:46:41;4.93;;;4.50;;
2041;SDS011;1026;51.460;7.252;2023-06-24T11:49:07;4.10;;;3.13;;
2041;SDS011;1026;51.460;7.252;2023-06-24T11:51:34;5.50;;;3.83;;
2041;SDS011;1026;51.460;7.252;2023-06-24T11:54:01;3.60;;;3.30;;
2041;SDS011;1026;51.460;7.252;2023-06-24T11:56:35;4.17;;;3.87;;
2041;SDS011;1026;51.460;7.252;2023-06-24T11:59:04;6.03;;;4.40;;
2041;SDS011;1026;51.460;7.252;2023-06-24T12:01:32;4.30;;;4.00;;
2041;SDS011;1026;51.460;7.252;2023-06-24T12:03:59;4.27;;;3.97;;
2041;SDS011;1026;51.460;7.252;2023-06-24T12:06:26;3.90;;;3.30;;
2041;SDS011;1026;51.460;7.252;2023-06-24T12:08:52;4.00;;;3.20;;
2041;SDS011;1026;51.460;7.252;2023-06-24T12:11:17;4.03;;;3.70;;
2041;SDS011;1026;51.460;7.252;2023-06-24T12:13:43;3.77;;;3.43;;
2041;SDS011;1026;51.460;7.252;2023-06-24T12:16:09;4.53;;;3.93;;
2041;SDS011;1026;51.460;7.252;2023-06-24T12:18:35;5.27;;;4.30;;
2041;SDS011;1026;51.460;7.252;2023-06-24T12:21:00;3.60;;;3.30;;
2041;SDS011;1026;51.460;7.252;2023-06-24T12:23:26;4.07;;;3.67;;
2041;SDS011;1026;51.460;7.252;2023-06-24T12:25:51;4.90;;;4.50;;
2041;SDS011;1026;51.460;7.252;2023-06-24T12:28:17;4.77;;;4.30;;
2041;SDS011;1026;51.460;7.252;2023-06-24T12:30:43;4.63;;;4.33;;
2041;SDS011;1026;51.460;7.252;2023-06-24T12:33:08;4.30;;;4.00;;
2041;SDS011;1026;51.460;7.252;2023-06-24T12:35:34;4.33;;;3.93;;
2041;SDS011;1026;51.460;7.252;2023-06-24T12:38:00;4.03;;;3.73;;
2041;SDS011;1026;51.460;7.252;2023-06-24T12:40:25;4.47;;;4.07;;
2041;SDS011;1026;51.460;7.252;2023-06-24T12:42:51;4.90;;;4.50;;
2041;SDS011;1026;51.460;7.252;2023-06-24T12:45:16;4.77;;;4.37;;
2041;SDS011;1026;51.460;7.252;2023-06-24T12:47:42;3.90;;;3.60;;
2041;SDS011;1026;51.460;7.252;2023-06-24T12:50:08;3.63;;;3.33;;
2041;SDS011;1026;51.460;7.252;2023-06-24T12:52:34;4.60;;;4.20;;
2041;SDS011;1026;51.460;7.252;2023-06-24T12:55:00;5.70;;;5.20;;
2041;SDS011;1026;51.460;7.252;2023-06-24T12:57:25;4.70;;;4.30;;
2041;SDS011;1026;51.460;7.252;2023-06-24T12:59:51;5.73;;;5.13;;
2041;SDS011;1026;51.460;7.252;2023-06-24T13:02:16;4.10;;;3.77;;
2041;SDS011;1026;51.460;7.252;2023-06-24T13:04:42;4.10;;;3.70;;
2041;SDS011;1026;51.460;7.252;2023-06-24T13:07:28;5.67;;;4.93;;
2041;SDS011;1026;51.460;7.252;2023-06-24T13:09:54;4.97;;;4.57;;
2041;SDS011;1026;51.460;7.252;2023-06-24T13:12:26;4.00;;;3.70;;
2041;SDS011;1026;51.460;7.252;2023-06-24T13:14:52;6.00;;;5.50;;
2041;SDS011;1026;51.460;7.252;2023-06-24T13:17:18;4.47;;;4.07;;
2041;SDS011;1026;51.460;7.252;2023-06-24T13:19:43;5.03;;;4.60;;
2041;SDS011;1026;51.460;7.252;2023-06-24T13:22:09;4.87;;;4.47;;
2041;SDS011;1026;51.460;7.252;2023-06-24T13:24:35;5.13;;;4.50;;
2041;SDS011;1026;51.460;7.252;2023-06-24T13:27:00;4.63;;;4.33;;
2041;SDS011;1026;51.460;7.252;2023-06-24T13:29:26;5.87;;;5.37;;
2041;SDS011;1026;51.460;7.252;2023-06-24T13:31:52;4.97;;;4.57;;
2041;SDS011;1026;51.460;7.252;2023-06-24T13:34:18;4.50;;;4.20;;
2041;SDS011;1026;51.460;7.252;2023-06-24T13:36:44;4.13;;;3.73;;
2041;SDS011;1026;51.460;7.252;2023-06-24T13:39:09;4.37;;;3.97;;
2041;SDS011;1026;51.460;7.252;2023-06-24T13:41:37;4.10;;;3.70;;
2041;SDS011;1026;51.460;7.252;2023-06-24T13:44:03;4.80;;;4.27;;
2041;SDS011;1026;51.460;7.252;2023-06-24T13:46:31;6.47;;;3.40;;
2041;SDS011;1026;51.460;7.252;2023-06-24T13:48:57;5.50;;;3.80;;
2041;SDS011;1026;51.460;7.252;2023-06-24T13:51:23;4.40;;;4.10;;
2041;SDS011;1026;51.460;7.252;2023-06-24T13:53:50;4.80;;;4.40;;
2041;SDS011;1026;51.460;7.252;2023-06-24T13:56:35;4.90;;;4.50;;
2041;SDS011;1026;51.460;7.252;2023-06-24T13:59:01;4.30;;;4.00;;
2041;SDS011;1026;51.460;7.252;2023-06-24T14:01:34;9.00;;;4.33;;
2041;SDS011;1026;51.460;7.252;2023-06-24T14:04:01;4.57;;;4.17;;
2041;SDS011;1026;51.460;7.252;2023-06-24T14:06:26;3.60;;;3.30;;
2041;SDS011;1026;51.460;7.252;2023-06-24T14:08:52;4.80;;;4.33;;
2041;SDS011;1026;51.460;7.252;2023-06-24T14:11:18;4.33;;;3.13;;
2041;SDS011;1026;51.460;7.252;2023-06-24T14:13:44;4.33;;;3.77;;
2041;SDS011;1026;51.460;7.252;2023-06-24T14:16:10;3.63;;;3.33;;
2041;SDS011;1026;51.460;7.252;2023-06-24T14:18:36;3.53;;;3.23;;
2041;SDS011;1026;51.460;7.252;2023-06-24T14:21:03;3.13;;;2.93;;
2041;SDS011;1026;51.460;7.252;2023-06-24T14:23:30;3.60;;;3.40;;
2041;SDS011;1026;51.460;7.252;2023-06-24T14:25:56;3.90;;;3.60;;
2041;SDS011;1026;51.460;7.252;2023-06-24T14:28:22;3.57;;;3.37;;
2041;SDS011;1026;51.460;7.252;2023-06-24T14:30:51;3.90;;;3.60;;
2041;SDS011;1026;51.460;7.252;2023-06-24T14:33:17;4.83;;;4.50;;
2041;SDS011;1026;51.460;7.252;2023-06-24T14:35:43;4.10;;;3.80;;
2041;SDS011;1026;51.460;7.252;2023-06-24T14:38:09;3.90;;;3.60;;
2041;SDS011;1026;51.460;7.252;2023-06-24T14:40:34;3.63;;;3.40;;
2041;SDS011;1026;51.460;7.252;2023-06-24T14:43:00;3.93;;;3.63;;
2041;SDS011;1026;51.460;7.252;2023-06-24T14:45:26;5.67;;;3.60;;
2041;SDS011;1026;51.460;7.252;2023-06-24T14:47:52;3.90;;;3.50;;
2041;SDS011;1026;51.460;7.252;2023-06-24T14:50:18;4.50;;;4.20;;
2041;SDS011;1026;51.460;7.252;2023-06-24T14:52:44;3.23;;;3.03;;
2041;SDS011;1026;51.460;7.252;2023-06-24T14:55:09;3.83;;;3.53;;
2041;SDS011;1026;51.460;7.252;2023-06-24T14:57:35;3.90;;;3.60;;
2041;SDS011;1026;51.460;7.252;2023-06-24T15:00:02;3.73;;;3.53;;
2041;SDS011;1026;51.460;7.252;2023-06-24T15:02:29;3.60;;;3.30;;
2041;SDS011;1026;51.460;7.252;2023-06-24T15:04:54;3.33;;;3.13;;
2041;SDS011;1026;51.460;7.252;2023-06-24T15:07:28;4.30;;;4.00;;
2041;SDS011;1026;51.460;7.252;2023-06-24T15:10:07;4.00;;;3.70;;
2041;SDS011;1026;51.460;7.252;2023-06-24T15:12:32;3.40;;;3.20;;
2041;SDS011;1026;51.460;7.252;2023-06-24T15:14:59;3.67;;;3.37;;
2041;SDS011;1026;51.460;7.252;2023-06-24T15:17:25;3.73;;;3.43;;
2041;SDS011;1026;51.460;7.252;2023-06-24T15:19:51;4.17;;;3.87;;
2041;SDS011;1026;51.460;7.252;2023-06-24T15:22:17;5.53;;;5.03;;
2041;SDS011;1026;51.460;7.252;2023-06-24T15:24:42;4.70;;;4.30;;
2041;SDS011;1026;51.460;7.252;2023-06-24T15:27:09;4.07;;;3.77;;
2041;SDS011;1026;51.460;7.252;2023-06-24T15:29:35;3.20;;;3.00;;
2041;SDS011;1026;51.460;7.252;2023-06-24T15:32:01;3.33;;;3.13;;
2041;SDS011;1026;51.460;7.252;2023-06-24T15:34:27;3.30;;;3.03;;
2041;SDS011;1026;51.460;7.252;2023-06-24T15:36:53;3.43;;;3.13;;